Time;durP1;ratioP1;P1;durP2;ratioP2;P2;SDS_P1;SDS_P2;PMS_P1;PMS_P2;Temp;Humidity;BMP_temperature;BMP_pressure;BME280_temperature;BME280_humidity;BME280_pressure;Samples;Min_cycle;Max_cycle;Signal;HPM_P1;HPM_P2
2023/04/20 00:02:25;;;;;;;4.85;2.40;;;;;;;-143.48;39.55;118439.88;5053347;28;20025;-37
2023/04/20 00:04:50;;;;;;;6.40;2.55;;;;;;;-143.48;40.15;118439.88;5052447;28;20021;-36
2023/04/20 00:07:15;;;;;;;6.95;2.60;;;;;;;-143.48;40.16;118439.88;5053659;28;20036;-37
2023/04/20 00:09:41;;;;;;;5.13;2.30;;;;;;;-143.48;40.18;118439.88;5053263;28;20021;-37
2023/04/20 00:12:07;;;;;;;5.50;2.40;;;;;;;-143.48;39.78;118439.88;5053315;28;20029;-37
2023/04/20 00:14:32;;;;;;;4.45;2.47;;;;;;;-143.48;39.69;118439.88;5053437;28;20108;-36
2023/04/20 00:16:57;;;;;;;4.40;2.55;;;;;;;-143.48;40.63;118439.88;5053257;28;20036;-38
2023/04/20 00:19:22;;;;;;;5.22;2.53;;;;;;;-143.48;40.19;118439.88;5053471;28;20107;-36
2023/04/20 00:21:48;;;;;;;4.35;2.22;;;;;;;-143.48;40.57;118439.88;5052040;28;20468;-37
2023/04/20 00:24:13;;;;;;;4.80;2.35;;;;;;;-143.48;41.36;118439.88;5053436;28;20052;-37
2023/04/20 00:26:39;;;;;;;6.20;2.42;;;;;;;-143.48;41.31;118439.88;5053414;28;20072;-35
2023/04/20 00:29:04;;;;;;;4.60;2.60;;;;;;;-143.48;41.43;118439.88;5053029;28;20107;-37
2023/04/20 00:31:30;;;;;;;11.80;2.80;;;;;;;-143.48;41.36;118439.88;5053101;28;20041;-36
2023/04/20 00:33:56;;;;;;;6.07;2.45;;;;;;;-143.48;41.76;118439.88;5053393;28;20025;-37
2023/04/20 00:36:21;;;;;;;5.53;2.75;;;;;;;-143.48;41.80;118439.88;5053009;28;20070;-37
2023/04/20 00:38:46;;;;;;;5.65;2.90;;;;;;;-143.48;41.80;118439.88;5053330;28;20114;-37
2023/04/20 00:41:12;;;;;;;4.22;2.63;;;;;;;-143.48;43.10;118439.88;5053333;28;20025;-38
2023/04/20 00:43:37;;;;;;;11.02;3.00;;;;;;;-143.48;42.83;118439.88;5053321;28;20139;-35
2023/04/20 00:46:02;;;;;;;10.43;2.58;;;;;;;-143.48;43.19;118439.88;5052989;28;20113;-37
2023/04/20 00:48:28;;;;;;;7.07;2.80;;;;;;;-143.48;42.96;118439.88;5052765;28;20057;-37
2023/04/20 00:50:53;;;;;;;6.55;2.60;;;;;;;-143.48;43.20;118439.88;5052854;28;20426;-36
2023/04/20 00:53:19;;;;;;;5.30;2.65;;;;;;;-143.48;43.05;118439.88;5053144;28;20047;-37
2023/04/20 00:55:45;;;;;;;4.38;2.60;;;;;;;-143.48;44.16;118439.88;5053198;28;20017;-36
2023/04/20 00:58:11;;;;;;;6.50;2.85;;;;;;;-143.48;43.30;118439.88;5053245;28;20063;-37
2023/04/20 01:00:38;;;;;;;6.57;2.95;;;;;;;-143.48;44.13;118439.88;5056932;28;20017;-36
2023/04/20 01:03:06;;;;;;;7.03;2.60;;;;;;;-143.48;44.50;118439.88;5056842;28;20452;-36
2023/04/20 01:05:31;;;;;;;9.88;3.35;;;;;;;-143.48;44.69;118439.88;5056592;28;20028;-37
2023/04/20 01:07:56;;;;;;;6.40;2.75;;;;;;;-143.48;44.29;118439.88;5057037;28;20029;-35
2023/04/20 01:10:22;;;;;;;5.28;2.70;;;;;;;-143.48;44.20;118439.88;5057180;28;20029;-36
2023/04/20 01:12:47;;;;;;;9.52;2.85;;;;;;;-143.48;44.96;118439.88;5056770;28;20041;-37
2023/04/20 01:15:12;;;;;;;4.68;2.80;;;;;;;-143.48;45.09;118439.88;5056399;28;20029;-37
2023/04/20 01:17:38;;;;;;;6.53;2.92;;;;;;;-143.48;44.32;118439.88;5056723;28;20025;-37
2023/04/20 01:20:07;;;;;;;4.15;2.70;;;;;;;-143.48;44.37;118439.88;5056525;28;20405;-36
2023/04/20 01:22:33;;;;;;;7.63;2.90;;;;;;;-143.48;44.42;118439.88;5056571;28;20116;-37
2023/04/20 01:24:58;;;;;;;5.47;2.88;;;;;;;-143.48;45.44;118439.88;5056312;28;20108;-34
2023/04/20 01:27:23;;;;;;;7.60;2.67;;;;;;;-143.48;45.11;118439.88;5056516;28;20029;-36
2023/04/20 01:29:49;;;;;;;5.03;2.63;;;;;;;-143.48;45.54;118439.88;5056419;28;20068;-36
2023/04/20 01:32:14;;;;;;;5.35;2.85;;;;;;;-143.48;46.40;118439.88;5056037;28;20020;-36
2023/04/20 01:34:40;;;;;;;7.47;3.25;;;;;;;-143.48;47.11;118439.88;5056406;28;20029;-37
2023/04/20 01:37:07;;;;;;;6.75;2.80;;;;;;;-143.48;46.08;118439.88;5056484;28;20043;-35
2023/04/20 01:39:36;;;;;;;6.97;3.08;;;;;;;-143.48;46.81;118439.88;5056351;28;20024;-36
2023/04/20 01:42:02;;;;;;;11.45;3.10;;;;;;;-143.48;47.02;118439.88;5055891;28;20103;-37
2023/04/20 01:44:27;;;;;;;9.77;3.10;;;;;;;-143.48;47.46;118439.88;5055920;28;20112;-37
2023/04/20 01:46:52;;;;;;;7.82;3.00;;;;;;;-143.48;47.38;118439.88;5055968;28;20044;-36
2023/04/20 01:49:18;;;;;;;4.35;2.90;;;;;;;-143.48;48.11;118439.88;5055794;28;20028;-36
2023/04/20 01:51:43;;;;;;;5.97;2.70;;;;;;;-143.48;47.77;118439.88;5056052;28;20032;-37
2023/04/20 01:54:08;;;;;;;7.82;3.13;;;;;;;-143.48;48.29;118439.88;5055982;28;20375;-37
2023/04/20 01:56:33;;;;;;;8.07;3.10;;;;;;;-143.48;49.44;118439.88;5055699;28;20021;-37
2023/04/20 01:58:59;;;;;;;8.75;3.17;;;;;;;-143.48;49.39;118439.88;5055884;28;20083;-36
2023/04/20 02:01:24;;;;;;;5.88;2.88;;;;;;;-143.48;49.79;118439.88;5055907;28;20017;-37
2023/04/20 02:03:49;;;;;;;5.25;2.92;;;;;;;-143.48;50.59;118439.88;5055384;28;20467;-36
2023/04/20 02:06:15;;;;;;;6.55;3.10;;;;;;;-143.48;50.59;118439.88;5055863;28;20032;-37
2023/04/20 02:08:40;;;;;;;5.40;3.00;;;;;;;-143.48;50.28;118439.88;5055775;28;20119;-37
2023/04/20 02:11:05;;;;;;;9.57;3.10;;;;;;;-143.48;49.99;118439.88;5054630;28;20036;-37
2023/04/20 02:13:31;;;;;;;5.78;2.92;;;;;;;-143.48;50.47;118439.88;5055407;28;20023;-36
2023/04/20 02:15:56;;;;;;;6.05;2.95;;;;;;;-143.48;50.31;118439.88;5055250;28;20063;-37
2023/04/20 02:18:21;;;;;;;7.22;3.05;;;;;;;-143.48;50.23;118439.88;5055277;28;20104;-37
2023/04/20 02:20:47;;;;;;;7.40;3.25;;;;;;;-143.48;50.64;118439.88;5055526;28;20051;-35
2023/04/20 02:23:12;;;;;;;5.55;2.97;;;;;;;-143.48;50.55;118439.88;5053954;28;20116;-37
2023/04/20 02:25:38;;;;;;;7.00;3.00;;;;;;;-143.48;50.71;118439.88;5055122;28;20024;-35
2023/04/20 02:28:04;;;;;;;9.48;3.03;;;;;;;-143.48;49.92;118439.88;5055107;28;20036;-36
2023/04/20 02:30:29;;;;;;;5.88;3.08;;;;;;;-143.48;50.37;118439.88;5055295;28;20511;-37
2023/04/20 02:32:55;;;;;;;7.07;2.58;;;;;;;-143.48;50.37;118439.88;5053797;28;20025;-37
2023/04/20 02:35:20;;;;;;;5.60;2.97;;;;;;;-143.48;49.63;118439.88;5055523;28;20021;-36
2023/04/20 02:37:46;;;;;;;7.30;2.67;;;;;;;-143.48;50.37;118439.88;5055121;28;20464;-37
2023/04/20 02:40:12;;;;;;;7.28;2.80;;;;;;;-143.48;50.25;118439.88;5055194;28;20028;-36
2023/04/20 02:42:37;;;;;;;5.47;2.78;;;;;;;-143.48;49.54;118439.88;5054849;28;20491;-36
2023/04/20 02:45:03;;;;;;;7.82;2.80;;;;;;;-143.48;50.04;118439.88;5054862;28;20154;-34
2023/04/20 02:47:28;;;;;;;4.53;2.78;;;;;;;-143.48;49.87;118439.88;5054764;28;20082;-37
2023/04/20 02:49:54;;;;;;;6.03;2.58;;;;;;;-143.48;49.71;118439.88;5054612;28;20111;-36
2023/04/20 02:52:19;;;;;;;4.40;2.67;;;;;;;-143.48;49.96;118439.88;5054651;28;20020;-38
2023/04/20 02:54:45;;;;;;;5.90;2.78;;;;;;;-143.48;50.40;118439.88;5054867;28;20024;-37
2023/04/20 02:57:10;;;;;;;6.20;2.90;;;;;;;-143.48;50.07;118439.88;5054515;28;20028;-37
2023/04/20 02:59:36;;;;;;;7.07;2.75;;;;;;;-143.48;49.85;118439.88;5054744;28;20017;-37
2023/04/20 03:02:02;;;;;;;6.25;2.58;;;;;;;-143.48;50.25;118439.88;5054686;28;20029;-37
2023/04/20 03:04:27;;;;;;;6.95;2.70;;;;;;;-143.48;50.05;118439.88;5054447;28;20016;-36
2023/04/20 03:06:52;;;;;;;11.38;2.78;;;;;;;-143.48;50.39;118439.88;5054383;28;20033;-37
2023/04/20 03:09:18;;;;;;;5.82;2.75;;;;;;;-143.48;50.17;118439.88;5054496;28;20013;-37
2023/04/20 03:11:44;;;;;;;4.32;2.45;;;;;;;-143.48;50.21;118439.88;5054230;28;20025;-37
2023/04/20 03:14:09;;;;;;;5.45;2.80;;;;;;;-143.48;50.90;118439.88;5054205;28;20033;-36
2023/04/20 03:16:35;;;;;;;7.15;2.60;;;;;;;-143.48;50.78;118439.88;5054459;28;20071;-34
2023/04/20 03:19:00;;;;;;;5.63;2.72;;;;;;;-143.48;51.37;118439.88;5054924;28;20032;-37
2023/04/20 03:21:25;;;;;;;7.57;2.50;;;;;;;-143.48;52.11;118439.88;5054328;28;20104;-36
2023/04/20 03:23:51;;;;;;;12.25;2.70;;;;;;;-143.48;51.75;118439.88;5054398;28;20032;-37
2023/04/20 03:26:16;;;;;;;5.20;2.22;;;;;;;-143.48;52.42;118439.88;5054835;28;20036;-37
2023/04/20 03:28:42;;;;;;;4.50;2.42;;;;;;;-143.48;52.81;118439.88;5054279;28;20021;-34
2023/04/20 03:31:07;;;;;;;9.65;2.70;;;;;;;-143.48;52.76;118439.88;5053781;28;20056;-36
2023/04/20 03:33:32;;;;;;;4.75;2.40;;;;;;;-143.48;53.57;118439.88;5054380;28;20103;-37
2023/04/20 03:35:58;;;;;;;3.63;2.38;;;;;;;-143.48;54.39;118439.88;5054373;28;20033;-36
2023/04/20 03:38:23;;;;;;;6.25;2.45;;;;;;;-143.48;54.67;118439.88;5054086;28;20029;-36
2023/04/20 03:40:48;;;;;;;4.95;2.28;;;;;;;-143.48;55.72;118439.88;5053732;28;20017;-37
2023/04/20 03:43:14;;;;;;;7.75;2.70;;;;;;;-143.48;55.87;118439.88;5053796;28;20025;-38
2023/04/20 03:45:40;;;;;;;4.75;2.47;;;;;;;-143.48;56.94;118439.88;5053977;28;20024;-35
2023/04/20 03:48:05;;;;;;;5.45;2.50;;;;;;;-143.48;56.78;118439.88;5053699;28;20084;-37
2023/04/20 03:50:30;;;;;;;4.43;2.35;;;;;;;-143.48;58.34;118439.88;5053811;28;20494;-34
2023/04/20 03:52:57;;;;;;;7.28;2.50;;;;;;;-143.48;58.95;118439.88;5053747;28;20135;-37
2023/04/20 03:55:22;;;;;;;8.45;2.58;;;;;;;-143.48;59.11;118439.88;5053736;28;20104;-37
2023/04/20 03:57:47;;;;;;;11.15;2.50;;;;;;;-143.48;60.50;118439.88;5053618;28;20031;-35
2023/04/20 04:00:13;;;;;;;6.90;2.70;;;;;;;-143.48;61.53;118439.88;5053505;28;20032;-35
2023/04/20 04:02:38;;;;;;;5.53;2.60;;;;;;;-143.48;62.43;118439.88;5053941;28;20372;-37
2023/04/20 04:05:04;;;;;;;7.40;3.30;;;;;;;-143.48;62.65;118439.88;5053678;28;20070;-37
2023/04/20 04:07:29;;;;;;;4.43;2.47;;;;;;;-143.48;62.30;118439.88;5053356;28;20033;-36
2023/04/20 04:09:55;;;;;;;8.40;2.50;;;;;;;-143.48;62.73;118439.88;5053296;28;20025;-35
2023/04/20 04:12:20;;;;;;;5.30;2.47;;;;;;;-143.48;63.55;118439.88;5053631;28;20070;-37
2023/04/20 04:14:46;;;;;;;7.32;2.60;;;;;;;-143.48;62.98;118439.88;5053627;28;20380;-37
2023/04/20 04:17:13;;;;;;;6.50;2.70;;;;;;;-143.48;63.52;118439.88;5053381;28;20025;-37
2023/04/20 04:19:38;;;;;;;4.72;2.30;;;;;;;-143.48;63.54;118439.88;5053250;28;20033;-35
2023/04/20 04:22:03;;;;;;;4.65;2.70;;;;;;;-143.48;63.89;118439.88;5053309;28;20163;-37
2023/04/20 04:24:29;;;;;;;9.30;2.50;;;;;;;-143.48;63.41;118439.88;5053514;28;20025;-37
2023/04/20 04:26:57;;;;;;;7.30;2.63;;;;;;;-143.48;63.98;118439.88;5053141;28;20494;-36
2023/04/20 04:29:24;;;;;;;8.30;2.70;;;;;;;-143.48;63.48;118439.88;5053409;28;20070;-36
2023/04/20 04:31:51;;;;;;;11.35;2.70;;;;;;;-143.48;62.60;118439.88;5053150;28;20037;-34
2023/04/20 04:34:17;;;;;;;8.35;2.30;;;;;;;-143.48;63.11;118439.88;5055268;28;20073;-36
2023/04/20 04:36:43;;;;;;;7.85;2.70;;;;;;;-143.48;62.94;118439.88;5057535;28;20110;-37
2023/04/20 04:39:08;;;;;;;8.95;2.55;;;;;;;-143.48;62.89;118439.88;5057015;28;20025;-38
2023/04/20 04:41:33;;;;;;;8.52;2.70;;;;;;;-143.48;62.90;118439.88;5057407;28;20025;-37
2023/04/20 04:43:59;;;;;;;6.43;2.30;;;;;;;-143.48;62.22;118439.88;5057134;28;20032;-37
2023/04/20 04:46:26;;;;;;;5.38;2.30;;;;;;;-143.48;62.15;118439.88;5057144;28;20071;-37
2023/04/20 04:48:51;;;;;;;5.82;2.50;;;;;;;-143.48;61.61;118439.88;5056904;28;20033;-37
2023/04/20 04:51:17;;;;;;;8.30;2.90;;;;;;;-143.48;61.01;118439.88;5056855;28;20367;-36
2023/04/20 04:53:44;;;;;;;7.43;2.45;;;;;;;-143.48;58.85;118439.88;5056743;28;20456;-37
2023/04/20 04:56:09;;;;;;;4.72;2.70;;;;;;;-143.48;58.22;118439.88;5057263;28;20025;-36
2023/04/20 04:58:34;;;;;;;5.35;2.17;;;;;;;-143.48;57.62;118439.88;5056690;28;20403;-37
2023/04/20 05:01:00;;;;;;;4.35;2.20;;;;;;;-143.48;55.95;118439.88;5056439;28;20052;-37
2023/04/20 05:03:25;;;;;;;5.50;2.22;;;;;;;-143.48;55.02;118439.88;5056590;28;20025;-36
2023/04/20 05:05:50;;;;;;;4.15;2.20;;;;;;;-143.48;54.10;118439.88;5056450;28;20099;-37
2023/04/20 05:08:16;;;;;;;9.98;2.22;;;;;;;-143.48;53.63;118439.88;5057019;28;20052;-36
2023/04/20 05:10:41;;;;;;;6.13;2.08;;;;;;;-143.48;53.72;118439.88;5056543;28;20153;-37
2023/04/20 05:13:06;;;;;;;5.20;2.40;;;;;;;-143.48;53.15;118439.88;5056325;28;20378;-38
2023/04/20 05:15:31;;;;;;;9.05;2.50;;;;;;;-143.48;53.55;118439.88;5056127;28;20035;-37
2023/04/20 05:17:57;;;;;;;5.40;2.30;;;;;;;-143.48;53.19;118439.88;5056315;28;20535;-36
2023/04/20 05:20:22;;;;;;;7.80;2.70;;;;;;;-143.48;53.43;118439.88;5056524;28;20052;-37
2023/04/20 05:22:48;;;;;;;5.53;2.70;;;;;;;-143.48;53.22;118439.88;5056670;28;20104;-36
2023/04/20 05:25:13;;;;;;;5.38;2.38;;;;;;;-143.48;53.89;118439.88;5056514;28;20459;-37
2023/04/20 05:27:39;;;;;;;8.57;2.42;;;;;;;-143.48;54.78;118439.88;5056148;28;20467;-37
2023/04/20 05:30:05;;;;;;;7.90;2.65;;;;;;;-143.48;55.14;118439.88;5056297;28;20021;-35
2023/04/20 05:32:30;;;;;;;6.90;2.90;;;;;;;-143.48;54.66;118439.88;5056160;28;20410;-37
2023/04/20 05:34:57;;;;;;;10.00;2.63;;;;;;;-143.48;54.82;118439.88;5056067;28;20017;-36
2023/04/20 05:37:22;;;;;;;6.50;2.58;;;;;;;-143.48;54.99;118439.88;5055193;28;20032;-36
2023/04/20 05:39:47;;;;;;;5.60;2.45;;;;;;;-143.48;54.75;118439.88;5055884;28;20410;-37
2023/04/20 05:42:13;;;;;;;7.20;3.00;;;;;;;-143.48;55.11;118439.88;5056068;28;20027;-35
2023/04/20 05:44:40;;;;;;;5.90;2.60;;;;;;;-143.48;55.63;118439.88;5055278;28;20065;-37
2023/04/20 05:47:07;;;;;;;4.65;2.47;;;;;;;-143.48;56.10;118439.88;5054932;28;20056;-36
2023/04/20 05:49:32;;;;;;;6.22;2.58;;;;;;;-143.48;56.11;118439.88;5055904;28;20056;-35
2023/04/20 05:51:58;;;;;;;7.55;2.55;;;;;;;-143.48;56.33;118439.88;5055724;28;20017;-36
2023/04/20 05:54:23;;;;;;;5.97;2.50;;;;;;;-143.48;56.86;118439.88;5055861;28;20052;-36
2023/04/20 05:56:49;;;;;;;6.10;2.30;;;;;;;-143.48;56.76;118439.88;5055804;28;20029;-36
2023/04/20 05:59:16;;;;;;;9.85;2.83;;;;;;;-143.48;56.67;118439.88;5055849;28;20032;-36
2023/04/20 06:01:41;;;;;;;5.95;2.42;;;;;;;-143.48;56.86;118439.88;5055946;28;20025;-36
2023/04/20 06:04:06;;;;;;;5.28;2.58;;;;;;;-143.48;56.34;118439.88;5055611;28;20036;-37
2023/04/20 06:06:32;;;;;;;5.95;2.80;;;;;;;-143.48;56.54;118439.88;5055461;28;20360;-36
2023/04/20 06:08:58;;;;;;;7.68;2.83;;;;;;;-143.48;56.94;118439.88;5055253;28;20349;-35
2023/04/20 06:11:23;;;;;;;5.72;2.80;;;;;;;-143.48;56.42;118439.88;5055161;28;20025;-36
2023/04/20 06:13:48;;;;;;;6.53;2.72;;;;;;;-143.48;57.16;118439.88;5055311;28;20087;-36
2023/04/20 06:16:14;;;;;;;11.40;2.58;;;;;;;-143.48;56.56;118439.88;5055291;28;20025;-37
2023/04/20 06:18:39;;;;;;;10.35;3.03;;;;;;;-143.48;56.85;118439.88;5055183;28;20032;-37
2023/04/20 06:21:05;;;;;;;5.75;2.45;;;;;;;-143.48;57.51;118439.88;5055532;28;20025;-37
2023/04/20 06:23:30;;;;;;;4.47;2.33;;;;;;;-143.48;57.72;118439.88;5055664;28;20368;-37
2023/04/20 06:25:55;;;;;;;6.18;2.85;;;;;;;-143.48;57.59;118439.88;5055399;28;20028;-37
2023/04/20 06:28:20;;;;;;;4.72;2.53;;;;;;;-143.48;57.49;118439.88;5055507;28;20111;-37
2023/04/20 06:30:46;;;;;;;7.25;2.78;;;;;;;-143.48;57.04;118439.88;5055505;28;20074;-37
2023/04/20 06:33:16;;;;;;;9.27;2.70;;;;;;;-143.48;57.43;118439.88;5054991;28;20021;-36
2023/04/20 06:35:41;;;;;;;14.32;2.80;;;;;;;-143.48;57.42;118439.88;5055183;28;20116;-37
2023/04/20 06:38:07;;;;;;;8.73;2.72;;;;;;;-143.48;57.27;118439.88;5054811;28;20107;-36
2023/04/20 06:40:32;;;;;;;6.93;2.90;;;;;;;-143.48;57.27;118439.88;5054837;28;20543;-34
2023/04/20 06:42:58;;;;;;;6.07;2.60;;;;;;;-143.48;57.21;118439.88;5055029;28;20048;-37
2023/04/20 06:45:23;;;;;;;7.60;2.60;;;;;;;-143.48;57.04;118439.88;5054697;28;20052;-35
2023/04/20 06:47:48;;;;;;;11.98;2.80;;;;;;;-143.48;56.81;118439.88;5054741;28;20048;-35
2023/04/20 06:50:14;;;;;;;5.63;2.80;;;;;;;-143.48;57.05;118439.88;5055091;28;20036;-36
2023/04/20 06:52:39;;;;;;;11.90;2.70;;;;;;;-143.48;57.76;118439.88;5055035;28;20025;-36
2023/04/20 06:55:05;;;;;;;8.40;2.70;;;;;;;-143.48;59.25;118439.88;5054777;28;20086;-37
2023/04/20 06:57:31;;;;;;;6.03;3.05;;;;;;;-143.48;59.71;118439.88;5054347;28;20025;-36
2023/04/20 06:59:57;;;;;;;13.20;2.92;;;;;;;-143.48;61.25;118439.88;5054659;28;20013;-37
2023/04/20 07:02:23;;;;;;;5.15;2.90;;;;;;;-143.48;62.32;118439.88;5054755;28;20083;-36
2023/04/20 07:04:48;;;;;;;10.88;3.00;;;;;;;-143.48;62.93;118439.88;5054628;28;20029;-37
2023/04/20 07:07:14;;;;;;;6.72;2.92;;;;;;;-143.48;64.49;118439.88;5054057;28;20488;-34
2023/04/20 07:09:39;;;;;;;7.88;3.00;;;;;;;-143.48;67.58;118439.88;5054402;28;20033;-37
2023/04/20 07:12:04;;;;;;;7.95;3.75;;;;;;;-143.48;67.68;118439.88;5054738;28;20025;-37
2023/04/20 07:14:30;;;;;;;6.10;3.10;;;;;;;-143.48;70.74;118439.88;5054270;28;20433;-37
2023/04/20 07:16:55;;;;;;;9.85;3.15;;;;;;;-143.48;73.44;118439.88;5054200;28;20025;-38
2023/04/20 07:19:20;;;;;;;7.13;3.08;;;;;;;-143.48;72.79;118439.88;5054162;28;20044;-36
2023/04/20 07:21:46;;;;;;;7.45;3.22;;;;;;;-143.48;76.62;118439.88;5054003;28;20074;-37
2023/04/20 07:24:11;;;;;;;5.15;3.20;;;;;;;-143.48;76.21;118439.88;5053880;28;20028;-37
2023/04/20 07:26:36;;;;;;;7.50;3.70;;;;;;;-143.48;79.28;118439.88;5053943;28;20104;-37
2023/04/20 07:29:02;;;;;;;7.40;3.60;;;;;;;-143.48;80.58;118439.88;5053964;28;20054;-37
2023/04/20 07:31:27;;;;;;;8.65;3.45;;;;;;;-143.48;79.58;118439.88;5054352;28;20170;-35
2023/04/20 07:33:52;;;;;;;9.20;3.42;;;;;;;-143.48;79.80;118439.88;5054092;28;20021;-34
2023/04/20 07:36:19;;;;;;;6.10;3.38;;;;;;;-143.48;80.82;118439.88;5053912;28;20520;-37
2023/04/20 07:38:44;;;;;;;11.20;3.45;;;;;;;-143.48;80.12;118439.88;5054022;28;20036;-36
2023/04/20 07:41:10;;;;;;;8.18;3.58;;;;;;;-143.48;81.25;118439.88;5053599;28;20383;-36
2023/04/20 07:43:36;;;;;;;4.38;3.17;;;;;;;-143.48;81.29;118439.88;5053839;28;20021;-37
2023/04/20 07:46:01;;;;;;;6.18;3.67;;;;;;;-143.48;83.58;118439.88;5054078;28;20081;-36
2023/04/20 07:48:27;;;;;;;7.75;3.45;;;;;;;-143.48;83.21;118439.88;5053538;28;20488;-36
2023/04/20 07:50:52;;;;;;;6.97;3.83;;;;;;;-143.48;84.97;118439.88;5053812;28;20032;-37
2023/04/20 07:53:17;;;;;;;8.48;3.90;;;;;;;-143.48;85.26;118439.88;5053865;28;20020;-34
2023/04/20 07:55:43;;;;;;;8.70;4.00;;;;;;;-143.48;85.05;118439.88;5053494;28;20023;-37
2023/04/20 07:58:08;;;;;;;7.72;3.75;;;;;;;-143.48;85.53;118439.88;5053768;28;20037;-36
2023/04/20 08:00:33;;;;;;;7.00;3.63;;;;;;;-143.48;85.63;118439.88;5053748;28;20013;-36
2023/04/20 08:02:59;;;;;;;6.78;3.55;;;;;;;-143.48;85.93;118439.88;5053613;28;20033;-37
2023/04/20 08:05:24;;;;;;;8.30;3.67;;;;;;;-143.48;86.18;118439.88;5053677;28;20472;-37
2023/04/20 08:07:50;;;;;;;10.23;3.50;;;;;;;-143.48;85.86;118439.88;5053553;28;20029;-34
2023/04/20 08:10:15;;;;;;;6.75;3.50;;;;;;;-143.48;84.99;118439.88;5053072;28;20079;-37
2023/04/20 08:12:40;;;;;;;8.85;3.70;;;;;;;-143.48;86.27;118439.88;5053244;28;20021;-37
2023/04/20 08:15:06;;;;;;;7.63;3.60;;;;;;;-143.48;84.38;118439.88;5053314;28;20025;-37
2023/04/20 08:17:32;;;;;;;8.65;3.78;;;;;;;-143.48;86.02;118439.88;5053689;28;20367;-37
2023/04/20 08:19:58;;;;;;;10.10;3.58;;;;;;;-143.48;84.84;118439.88;5052483;28;20021;-37
2023/04/20 08:22:26;;;;;;;6.32;3.33;;;;;;;-143.48;85.30;118439.88;5053238;28;20025;-37
2023/04/20 08:24:51;;;;;;;10.00;3.63;;;;;;;-143.48;84.34;118439.88;5053368;28;20021;-36
2023/04/20 08:27:17;;;;;;;10.43;3.83;;;;;;;-143.48;85.85;118439.88;5053139;28;20371;-36
2023/04/20 08:29:42;;;;;;;9.20;4.10;;;;;;;-143.48;83.72;118439.88;5052922;28;20487;-37
2023/04/20 08:32:07;;;;;;;5.78;3.42;;;;;;;-143.48;84.26;118439.88;5053437;28;20025;-37
2023/04/20 08:34:33;;;;;;;10.07;3.70;;;;;;;-143.48;83.47;118439.88;5053372;28;20516;-37
2023/04/20 08:36:59;;;;;;;7.22;3.90;;;;;;;-143.48;83.54;118439.88;5053317;28;20036;-34
2023/04/20 08:39:24;;;;;;;6.45;3.90;;;;;;;-143.48;82.00;118439.88;5052956;28;20032;-36
2023/04/20 08:41:54;;;;;;;5.85;3.50;;;;;;;-143.48;82.89;118439.88;5053216;28;20035;-35
2023/04/20 08:44:20;;;;;;;5.43;3.45;;;;;;;-143.48;83.06;118439.88;5053004;28;20490;-36
2023/04/20 08:46:47;;;;;;;6.75;3.80;;;;;;;-143.48;82.71;118439.88;5051614;28;20044;-36
2023/04/20 08:49:14;;;;;;;5.90;3.58;;;;;;;-143.48;82.00;118439.88;5053114;28;20386;-37
2023/04/20 08:51:42;;;;;;;7.50;3.95;;;;;;;-143.48;82.38;118439.88;5052165;28;20021;-35
2023/04/20 08:54:09;;;;;;;7.13;3.70;;;;;;;-143.48;81.65;118439.88;5052859;28;20032;-35
2023/04/20 08:56:36;;;;;;;6.97;3.80;;;;;;;-143.48;81.60;118439.88;5053194;28;20436;-37
2023/04/20 08:59:04;;;;;;;7.32;3.78;;;;;;;-143.48;80.74;118439.88;5052708;28;20024;-35
2023/04/20 09:01:29;;;;;;;7.10;3.67;;;;;;;-143.48;80.82;118439.88;5053008;28;20016;-36
2023/04/20 09:03:55;;;;;;;8.20;4.05;;;;;;;-143.48;79.71;118439.88;5052886;28;20371;-36
2023/04/20 09:06:21;;;;;;;10.88;4.20;;;;;;;-143.48;78.84;118439.88;5052887;28;20111;-37
2023/04/20 09:08:47;;;;;;;7.15;3.50;;;;;;;-143.48;78.82;118439.88;5052632;28;20063;-34
2023/04/20 09:11:26;;;;;;;8.15;3.92;;;;;;;-143.48;79.54;118439.88;5052274;28;20029;-34
2023/04/20 09:14:06;;;;;;;8.68;4.63;;;;;;;-143.48;79.39;118439.88;5053200;28;20090;-36
2023/04/20 09:17:13;;;;;;;6.57;3.60;;;;;;;-143.48;78.25;118439.88;5053008;28;20036;-36
2023/04/20 09:19:39;;;;;;;8.45;4.05;;;;;;;-143.48;77.38;118439.88;5053523;28;20025;-35
2023/04/20 09:22:05;;;;;;;5.78;3.55;;;;;;;-143.48;78.60;118439.88;5056595;28;20021;-38
2023/04/20 09:24:36;;;;;;;7.47;3.67;;;;;;;-143.48;79.05;118439.88;5056398;28;20029;-36
2023/04/20 09:27:16;;;;;;;8.25;4.30;;;;;;;-143.48;76.97;118439.88;5056817;28;20021;-36
2023/04/20 09:29:41;;;;;;;6.93;3.30;;;;;;;-143.48;76.16;118439.88;5056654;28;20024;-37
2023/04/20 09:32:06;;;;;;;6.03;3.80;;;;;;;-143.48;76.14;118439.88;5055977;28;20100;-37
2023/04/20 09:34:42;;;;;;;6.68;4.22;;;;;;;-143.48;75.35;118439.88;5056063;28;20032;-36
2023/04/20 09:37:08;;;;;;;9.27;4.00;;;;;;;-143.48;74.51;118439.88;5056421;28;20041;-37
2023/04/20 09:39:36;;;;;;;8.10;4.03;;;;;;;-143.48;74.16;118439.88;5055975;28;20416;-35
2023/04/20 09:42:04;;;;;;;11.98;4.22;;;;;;;-143.48;72.72;118439.88;5055312;28;20033;-37
2023/04/20 09:44:31;;;;;;;6.35;3.97;;;;;;;-143.48;73.96;118439.88;5055323;28;20059;-35
2023/04/20 09:46:57;;;;;;;10.07;4.32;;;;;;;-143.48;72.68;118439.88;5054994;28;20133;-37
2023/04/20 09:49:23;;;;;;;7.07;4.10;;;;;;;-143.48;71.61;118439.88;5054423;28;20031;-36
2023/04/20 09:51:48;;;;;;;8.85;4.60;;;;;;;-143.48;69.94;118439.88;5054240;28;20021;-38
2023/04/20 09:54:14;;;;;;;7.68;4.68;;;;;;;-143.48;69.57;118439.88;5056052;28;20025;-38
2023/04/20 09:56:40;;;;;;;6.70;3.75;;;;;;;-143.48;70.49;118439.88;5055915;28;20025;-37
2023/04/20 09:59:06;;;;;;;7.35;4.05;;;;;;;-143.48;69.04;118439.88;5055908;28;20109;-37
2023/04/20 10:01:34;;;;;;;7.68;4.30;;;;;;;-143.48;71.06;118439.88;5055965;28;20083;-38
2023/04/20 10:04:02;;;;;;;7.38;4.20;;;;;;;-143.48;71.02;118439.88;5055409;28;20479;-39
2023/04/20 10:06:30;;;;;;;6.85;4.20;;;;;;;-143.48;71.70;118439.88;5056274;28;20025;-35
2023/04/20 10:08:56;;;;;;;8.55;4.32;;;;;;;-143.48;68.48;118439.88;5055432;28;20028;-38
2023/04/20 10:11:32;;;;;;;6.80;4.70;;;;;;;-143.48;67.23;118439.88;5055416;28;20025;-37
2023/04/20 10:13:59;;;;;;;9.18;4.20;;;;;;;-143.48;69.06;118439.88;5053604;28;20024;-37
2023/04/20 10:16:25;;;;;;;9.02;4.30;;;;;;;-143.48;65.64;118439.88;5053540;28;20371;-36
2023/04/20 10:18:59;;;;;;;6.97;4.18;;;;;;;-143.48;66.38;118439.88;5053336;28;20056;-37
2023/04/20 10:21:24;;;;;;;8.82;4.30;;;;;;;-143.48;65.63;118439.88;5053335;28;20047;-38
2023/04/20 10:23:51;;;;;;;14.35;4.65;;;;;;;-143.48;65.17;118439.88;5054362;28;20028;-38
2023/04/20 10:26:16;;;;;;;10.50;4.68;;;;;;;-143.48;64.33;118439.88;5055189;28;20074;-38
2023/04/20 10:28:43;;;;;;;7.85;4.80;;;;;;;-143.48;62.82;118439.88;5055210;28;20420;-35
2023/04/20 10:31:14;;;;;;;12.15;4.72;;;;;;;-143.48;61.33;118439.88;5054553;28;20483;-36
2023/04/20 10:33:53;;;;;;;8.48;4.60;;;;;;;-143.48;61.99;118439.88;5055417;28;20100;-35
2023/04/20 10:36:23;;;;;;;7.18;4.60;;;;;;;-143.48;61.80;118439.88;5055064;28;20053;-36
2023/04/20 10:38:50;;;;;;;8.10;4.63;;;;;;;-143.48;62.17;118439.88;5054485;28;20021;-35
2023/04/20 10:41:15;;;;;;;7.88;4.45;;;;;;;-143.48;59.25;118439.88;5054643;28;20044;-36
2023/04/20 10:43:42;;;;;;;8.40;4.43;;;;;;;-143.48;56.10;118439.88;5055090;28;20021;-37
2023/04/20 10:46:14;;;;;;;7.80;4.22;;;;;;;-143.48;56.03;118439.88;5055031;28;20380;-38
2023/04/20 10:49:00;;;;;;;7.18;4.28;;;;;;;-143.48;56.27;118439.88;5053932;28;20148;-37
2023/04/20 10:51:25;;;;;;;8.73;4.35;;;;;;;-143.48;56.13;118439.88;5054577;28;20468;-37
2023/04/20 10:54:05;;;;;;;10.13;4.25;;;;;;;-143.48;57.64;118439.88;5054705;28;20028;-37
2023/04/20 10:56:56;;;;;;;8.43;4.70;;;;;;;-143.48;59.43;118439.88;5054962;28;20032;-36
2023/04/20 10:59:23;;;;;;;8.27;4.72;;;;;;;-143.48;57.32;118439.88;5053842;28;20043;-38
2023/04/20 11:01:50;;;;;;;8.10;4.32;;;;;;;-143.48;58.59;118439.88;5054817;28;20021;-37
2023/04/20 11:04:16;;;;;;;9.63;4.70;;;;;;;-143.48;59.48;118439.88;5053961;28;20021;-36
2023/04/20 11:06:43;;;;;;;7.85;5.00;;;;;;;-143.48;61.18;118439.88;5054004;28;20094;-37